Time;durP1;ratioP1;P1;durP2;ratioP2;P2;SDS_P1;SDS_P2;PMS_P1;PMS_P2;Temp;Humidity;BMP_temperature;BMP_pressure;BME280_temperature;BME280_humidity;BME280_pressure;Samples;Min_cycle;Max_cycle;Signal;HPM_P1;HPM_P2
2024/01/20 00:00:13;;;;;;;29.17;12.35;;;;;;;-2.38;100.00;102567.34;4955009;29;20019;-87
2024/01/20 00:02:38;;;;;;;29.88;13.18;;;;;;;-2.36;100.00;102570.84;4955101;29;20032;-88
2024/01/20 00:05:04;;;;;;;29.83;12.63;;;;;;;-2.37;100.00;102576.75;4955071;29;20494;-88
2024/01/20 00:07:30;;;;;;;31.80;14.32;;;;;;;-2.34;100.00;102576.91;4960364;29;20019;-87
2024/01/20 00:09:55;;;;;;;30.15;13.18;;;;;;;-2.33;100.00;102575.28;4958551;29;20039;-87
2024/01/20 00:12:20;;;;;;;30.17;12.80;;;;;;;-2.35;100.00;102580.25;4954560;29;20065;-87
2024/01/20 00:14:46;;;;;;;34.40;14.55;;;;;;;-2.33;100.00;102585.44;4954668;29;20027;-87
2024/01/20 00:17:11;;;;;;;33.05;14.00;;;;;;;-2.35;100.00;102579.38;4954530;29;20127;-87
2024/01/20 00:19:37;;;;;;;29.33;12.20;;;;;;;-2.31;100.00;102581.34;4954673;29;20023;-87
2024/01/20 00:22:03;;;;;;;27.67;11.10;;;;;;;-2.30;100.00;102584.75;4954309;29;20172;-87
2024/01/20 00:24:29;;;;;;;27.77;11.70;;;;;;;-2.29;100.00;102586.53;4953776;29;20110;-87
2024/01/20 00:26:54;;;;;;;26.77;11.20;;;;;;;-2.24;100.00;102592.78;4934830;29;20118;-87
2024/01/20 00:29:19;;;;;;;29.52;12.32;;;;;;;-2.25;100.00;102596.13;4935128;29;20379;-88
2024/01/20 00:31:45;;;;;;;31.60;12.32;;;;;;;-2.24;100.00;102597.88;4935118;29;20031;-87
2024/01/20 00:34:10;;;;;;;30.13;12.85;;;;;;;-2.24;100.00;102592.78;4934602;29;20036;-87
2024/01/20 00:36:35;;;;;;;28.17;11.52;;;;;;;-2.23;100.00;102581.81;4935550;29;20024;-87
2024/01/20 00:39:01;;;;;;;25.90;10.82;;;;;;;-2.24;100.00;102574.97;4935660;29;20164;-87
2024/01/20 00:41:26;;;;;;;26.85;10.73;;;;;;;-2.23;100.00;102575.09;4934681;29;20122;-87
2024/01/20 00:43:52;;;;;;;25.20;10.25;;;;;;;-2.21;100.00;102581.16;4965974;23;20059;-87
2024/01/20 00:46:17;;;;;;;26.25;10.32;;;;;;;-2.25;100.00;102568.16;4953509;28;20030;-87
2024/01/20 00:48:43;;;;;;;28.52;10.85;;;;;;;-2.21;100.00;102580.28;4954024;29;20031;-87
2024/01/20 00:51:08;;;;;;;28.40;11.88;;;;;;;-2.22;100.00;102578.50;4954229;29;20032;-87
2024/01/20 00:53:34;;;;;;;26.02;10.85;;;;;;;-2.23;100.00;102579.28;4954180;29;20142;-87
2024/01/20 00:55:59;;;;;;;26.17;10.27;;;;;;;-2.23;100.00;102576.75;4953983;28;20035;-87
2024/01/20 00:58:25;;;;;;;27.10;11.02;;;;;;;-2.23;100.00;102584.38;4954177;28;20027;-87
2024/01/20 01:00:50;;;;;;;27.50;11.73;;;;;;;-2.23;100.00;102577.63;4954853;29;20314;-87
2024/01/20 01:03:15;;;;;;;27.67;11.10;;;;;;;-2.22;100.00;102583.59;4953149;29;20023;-88
2024/01/20 01:05:41;;;;;;;28.70;11.55;;;;;;;-2.22;100.00;102575.97;4953987;29;20063;-87
2024/01/20 01:08:06;;;;;;;27.75;11.48;;;;;;;-2.25;100.00;102574.09;4954136;29;20058;-87
2024/01/20 01:10:45;;;;;;;30.27;11.88;;;;;;;-2.31;100.00;102555.91;4953831;29;20031;-88
2024/01/20 01:13:11;;;;;;;29.50;11.63;;;;;;;-2.21;100.00;102585.34;4956426;29;20039;-87
2024/01/20 01:15:36;;;;;;;31.00;12.25;;;;;;;-2.36;100.00;102553.03;4953851;29;20019;-86
2024/01/20 01:18:05;;;;;;;25.90;10.38;;;;;;;-2.39;100.00;102549.44;4954282;29;20384;-88
2024/01/20 01:20:36;;;;;;;27.75;11.18;;;;;;;-2.29;100.00;102567.03;4954528;29;20046;-88
2024/01/20 01:23:02;;;;;;;27.75;11.20;;;;;;;-2.27;100.00;102579.88;4964552;28;20697;-88
2024/01/20 01:25:27;;;;;;;28.25;11.27;;;;;;;-2.32;100.00;102577.03;4973680;28;20062;-87
2024/01/20 01:27:53;;;;;;;28.17;11.55;;;;;;;-2.30;100.00;102582.22;4976520;28;20070;-88
2024/01/20 01:30:24;;;;;;;25.50;10.13;;;;;;;-2.33;100.00;102573.59;4973425;28;20051;-87
2024/01/20 01:32:52;;;;;;;25.05;10.27;;;;;;;-2.37;100.00;102576.75;4973977;28;20076;-88
2024/01/20 01:35:24;;;;;;;25.48;10.45;;;;;;;-2.38;100.00;102577.53;4973735;28;20336;-88
2024/01/20 01:37:58;;;;;;;27.25;11.27;;;;;;;-2.43;100.00;102565.28;4973689;28;20031;-87
2024/01/20 01:40:23;;;;;;;25.77;10.48;;;;;;;-2.30;100.00;102589.84;4974214;28;20046;-88
2024/01/20 01:42:56;;;;;;;27.15;11.13;;;;;;;-2.35;100.00;102598.03;4973637;28;20047;-88
2024/01/20 01:45:24;;;;;;;28.05;11.18;;;;;;;-2.43;100.00;102583.09;4973860;28;20027;-87
2024/01/20 01:47:51;;;;;;;27.65;10.85;;;;;;;-2.35;100.00;102597.19;4975028;28;20037;-88
2024/01/20 01:50:18;;;;;;;27.33;10.80;;;;;;;-2.39;100.00;102593.56;4974094;28;20034;-88
2024/01/20 01:52:45;;;;;;;24.25;9.77;;;;;;;-2.38;100.00;102591.88;4974569;28;20023;-88
2024/01/20 01:55:11;;;;;;;24.80;9.63;;;;;;;-2.35;100.00;102609.91;4975023;28;20435;-88
2024/01/20 01:57:38;;;;;;;22.35;8.40;;;;;;;-2.32;100.00;102612.66;4978175;28;20023;-87
2024/01/20 02:00:04;;;;;;;23.17;8.27;;;;;;;-2.30;100.00;102621.22;4978508;28;20029;-88
2024/01/20 02:02:30;;;;;;;24.53;9.13;;;;;;;-2.29;100.00;102619.59;4979447;28;20396;-88
2024/01/20 02:04:55;;;;;;;22.95;8.93;;;;;;;-2.38;100.00;102602.94;4980112;28;20027;-87
2024/01/20 02:07:22;;;;;;;22.00;8.23;;;;;;;-2.27;100.00;102616.34;4981728;28;20097;-87
2024/01/20 02:09:48;;;;;;;22.95;8.77;;;;;;;-2.25;100.00;102621.56;4985646;23;20054;-88
2024/01/20 02:12:14;;;;;;;24.17;9.52;;;;;;;-2.17;100.00;102630.56;4966984;28;20109;-87
2024/01/20 02:14:42;;;;;;;23.77;8.73;;;;;;;-2.22;100.00;102627.72;4971228;29;20011;-87
2024/01/20 02:17:07;;;;;;;23.52;8.93;;;;;;;-2.22;100.00;102630.28;4966554;29;20030;-88
2024/01/20 02:19:37;;;;;;;24.27;9.13;;;;;;;-2.23;100.00;102628.50;4961956;28;20118;-87
2024/01/20 02:22:29;;;;;;;28.20;11.45;;;;;;;-2.24;100.00;102629.28;4976910;28;20023;-88
2024/01/20 02:24:54;;;;;;;25.23;9.38;;;;;;;-2.29;100.00;102628.09;4973604;28;20054;-87
2024/01/20 02:27:20;;;;;;;23.50;9.95;;;;;;;-2.25;100.00;102629.19;4976297;28;20053;-87
2024/01/20 02:29:45;;;;;;;27.02;11.52;;;;;;;-2.25;100.00;102624.97;4975752;28;20114;-88
2024/01/20 02:32:10;;;;;;;26.25;10.95;;;;;;;-2.29;100.00;102638.25;4975717;28;20027;-88
2024/01/20 02:34:37;;;;;;;24.58;10.20;;;;;;;-2.29;100.00;102639.94;4966879;28;20392;-88
2024/01/20 02:37:07;;;;;;;26.17;11.13;;;;;;;-2.38;100.00;102624.94;4956885;29;20031;-88
2024/01/20 02:39:34;;;;;;;26.08;10.65;;;;;;;-2.32;100.00;102640.63;4957166;29;20028;-87
2024/01/20 02:41:59;;;;;;;27.05;11.30;;;;;;;-2.40;100.00;102624.84;4956604;29;20106;-87
2024/01/20 02:44:24;;;;;;;27.27;11.13;;;;;;;-2.37;100.00;102631.78;4956213;29;20123;-87
2024/01/20 02:46:52;;;;;;;25.80;10.43;;;;;;;-2.36;100.00;102624.25;4956920;28;20093;-87
2024/01/20 02:49:17;;;;;;;26.20;10.68;;;;;;;-2.38;100.00;102618.22;4956064;29;20078;-88
2024/01/20 02:51:42;;;;;;;23.20;9.50;;;;;;;-2.36;100.00;102621.72;4956415;29;20031;-87
2024/01/20 02:54:08;;;;;;;24.30;10.30;;;;;;;-2.33;100.00;102627.00;4955895;29;20448;-87
2024/01/20 02:56:33;;;;;;;23.30;9.48;;;;;;;-2.35;100.00;102625.16;4956769;29;20039;-87
2024/01/20 02:58:58;;;;;;;22.67;8.98;;;;;;;-2.32;100.00;102620.28;4956448;29;20110;-87
2024/01/20 03:01:23;;;;;;;24.40;9.75;;;;;;;-2.27;100.00;102621.44;4956690;28;20023;-87
2024/01/20 03:03:49;;;;;;;24.15;9.73;;;;;;;-2.36;100.00;102614.06;4956041;29;20046;-87
2024/01/20 03:06:31;;;;;;;26.45;11.25;;;;;;;-2.39;100.00;102615.53;4948373;29;20038;-87
2024/01/20 03:09:02;;;;;;;26.08;9.93;;;;;;;-2.35;100.00;102632.78;4955371;28;20035;-87
2024/01/20 03:11:27;;;;;;;25.77;10.40;;;;;;;-2.35;100.00;102642.94;4955674;28;20043;-87
2024/01/20 03:13:52;;;;;;;24.83;10.10;;;;;;;-2.46;100.00;102623.56;4956119;29;20038;-87
2024/01/20 03:16:18;;;;;;;25.65;10.57;;;;;;;-2.45;100.00;102631.28;4955423;29;20046;-87
2024/01/20 03:18:43;;;;;;;26.05;10.70;;;;;;;-2.36;100.00;102647.13;4974163;28;20467;-87
2024/01/20 03:21:08;;;;;;;28.73;12.13;;;;;;;-2.36;100.00;102639.50;4978104;28;20106;-87
2024/01/20 03:23:34;;;;;;;25.90;11.00;;;;;;;-2.28;100.00;102649.34;4982874;28;20031;-87
2024/01/20 03:26:06;;;;;;;27.52;11.43;;;;;;;-2.26;100.00;102655.41;4975951;28;20054;-87
2024/01/20 03:28:32;;;;;;;26.92;10.45;;;;;;;-2.24;100.00;102657.28;4975574;28;20033;-88
2024/01/20 03:30:57;;;;;;;25.23;10.00;;;;;;;-2.23;100.00;102648.84;4974717;28;20027;-87
2024/01/20 03:33:22;;;;;;;23.27;9.70;;;;;;;-2.25;100.00;102650.41;4975295;28;20399;-87
2024/01/20 03:35:48;;;;;;;24.52;9.90;;;;;;;-2.23;100.00;102656.50;4974878;28;20027;-88
2024/01/20 03:38:13;;;;;;;25.73;10.38;;;;;;;-2.29;100.00;102634.84;4974117;28;20027;-87
2024/01/20 03:40:39;;;;;;;27.10;11.27;;;;;;;-2.24;100.00;102652.19;4974892;28;20037;-87
2024/01/20 03:43:04;;;;;;;25.35;10.23;;;;;;;-2.26;100.00;102647.78;4974915;28;20081;-87
2024/01/20 03:45:29;;;;;;;25.60;10.20;;;;;;;-2.23;100.00;102655.59;4974212;28;20379;-87
2024/01/20 03:47:55;;;;;;;26.33;10.70;;;;;;;-2.23;100.00;102653.03;4975029;28;20099;-87
2024/01/20 03:50:20;;;;;;;23.60;10.10;;;;;;;-2.27;100.00;102646.88;4974262;28;20381;-84
2024/01/20 03:52:45;;;;;;;25.08;10.35;;;;;;;-2.23;100.00;102656.50;4974768;28;20463;-87
2024/01/20 03:55:10;;;;;;;25.67;10.57;;;;;;;-2.23;100.00;102648.84;4974657;28;20128;-88
2024/01/20 03:57:36;;;;;;;27.23;11.68;;;;;;;-2.27;100.00;102641.78;4974298;28;20035;-87
2024/01/20 04:00:22;;;;;;;26.92;10.77;;;;;;;-2.28;100.00;102644.25;4974405;28;20033;-87
2024/01/20 04:02:50;;;;;;;29.70;12.40;;;;;;;-2.23;100.00;102642.88;4974847;28;20026;-87
2024/01/20 04:05:16;;;;;;;29.15;11.88;;;;;;;-2.24;100.00;102652.19;4974387;28;20305;-88
2024/01/20 04:07:42;;;;;;;24.45;10.80;;;;;;;-2.25;100.00;102644.47;4974394;28;20065;-87
2024/01/20 04:10:08;;;;;;;26.70;11.03;;;;;;;-2.24;100.00;102653.81;4974054;28;20081;-87
2024/01/20 04:12:35;;;;;;;23.58;9.77;;;;;;;-2.25;100.00;102655.50;4973783;28;20278;-87
2024/01/20 04:15:01;;;;;;;23.42;9.93;;;;;;;-2.32;100.00;102648.25;4964197;28;20034;-88
2024/01/20 04:17:26;;;;;;;24.33;9.48;;;;;;;-2.23;100.00;102658.13;4954460;29;20035;-86
2024/01/20 04:19:51;;;;;;;23.55;9.40;;;;;;;-2.22;100.00;102660.81;4954518;28;20031;-87
2024/01/20 04:22:17;;;;;;;23.75;9.73;;;;;;;-2.28;100.00;102651.88;4954265;28;20075;-87
2024/01/20 04:24:42;;;;;;;24.13;9.55;;;;;;;-2.28;100.00;102659.50;4954986;29;20106;-87
2024/01/20 04:27:07;;;;;;;27.17;11.75;;;;;;;-2.06;100.00;102669.44;4955296;29;20046;-88
2024/01/20 04:29:33;;;;;;;27.95;11.65;;;;;;;-2.27;100.00;102657.06;4956521;29;20027;-88
2024/01/20 04:31:59;;;;;;;23.80;9.70;;;;;;;-2.31;100.00;102659.28;4955122;29;20027;-87
2024/01/20 04:34:24;;;;;;;24.08;10.15;;;;;;;-2.24;100.00;102680.16;4954047;29;20027;-87
2024/01/20 04:36:49;;;;;;;23.80;9.07;;;;;;;-2.24;100.00;102679.25;4954889;29;20460;-87
2024/01/20 04:39:14;;;;;;;21.73;8.90;;;;;;;-2.26;100.00;102674.09;4954093;29;20056;-87
2024/01/20 04:41:40;;;;;;;22.80;8.82;;;;;;;-2.26;100.00;102680.84;4959579;28;20062;-87
2024/01/20 04:44:05;;;;;;;23.58;9.20;;;;;;;-2.24;100.00;102677.63;4974042;28;20093;-87
2024/01/20 04:46:31;;;;;;;24.30;10.18;;;;;;;-2.24;100.00;102677.63;4974359;28;20408;-88
2024/01/20 04:48:56;;;;;;;24.02;10.05;;;;;;;-2.32;100.00;102663.50;4973586;28;20110;-87
2024/01/20 04:51:21;;;;;;;24.95;10.18;;;;;;;-2.23;100.00;102681.03;4973867;28;20456;-87
2024/01/20 04:53:47;;;;;;;24.25;9.82;;;;;;;-2.27;100.00;102679.06;4973766;28;20475;-87
2024/01/20 04:56:12;;;;;;;25.05;9.40;;;;;;;-2.25;100.00;102682.63;4973320;28;20483;-88
2024/01/20 04:58:37;;;;;;;22.20;8.68;;;;;;;-2.21;100.00;102687.09;4973973;28;20103;-87
2024/01/20 05:01:03;;;;;;;26.52;11.05;;;;;;;-2.23;100.00;102679.38;4973166;28;20144;-87
2024/01/20 05:03:28;;;;;;;25.95;11.07;;;;;;;-2.22;100.00;102690.44;4972940;28;20027;-88
2024/01/20 05:05:53;;;;;;;25.30;10.00;;;;;;;-2.20;100.00;102684.69;4973784;28;20042;-87
2024/01/20 05:08:19;;;;;;;25.95;10.18;;;;;;;-2.24;100.00;102680.16;4973253;28;20026;-88
2024/01/20 05:10:45;;;;;;;25.33;10.57;;;;;;;-2.21;100.00;102682.03;4973200;28;20477;-88
2024/01/20 05:13:10;;;;;;;24.73;10.27;;;;;;;-2.25;100.00;102678.41;4957594;28;20051;-87
2024/01/20 05:15:35;;;;;;;24.60;9.30;;;;;;;-2.22;100.00;102687.88;4954271;29;20035;-87
2024/01/20 05:18:02;;;;;;;24.17;9.25;;;;;;;-2.20;100.00;102694.88;4954340;29;20029;-87
2024/01/20 05:20:27;;;;;;;24.70;9.73;;;;;;;-2.21;100.00;102700.72;4954494;29;20094;-87
2024/01/20 05:22:53;;;;;;;24.27;9.80;;;;;;;-2.19;100.00;102693.19;4954247;28;20066;-87
2024/01/20 05:25:18;;;;;;;23.83;9.63;;;;;;;-2.23;100.00;102692.09;4954298;29;20039;-87
2024/01/20 05:27:43;;;;;;;27.15;10.13;;;;;;;-2.24;100.00;102692.88;4954497;29;20074;-88
2024/01/20 05:30:09;;;;;;;25.55;10.43;;;;;;;-2.24;100.00;102708.13;4953502;29;20023;-87
2024/01/20 05:32:38;;;;;;;23.70;9.80;;;;;;;-2.24;100.00;102704.69;4957595;28;20023;-88
2024/01/20 05:35:04;;;;;;;23.55;9.65;;;;;;;-2.29;100.00;102695.91;4978142;28;20114;-88
2024/01/20 05:37:29;;;;;;;22.98;9.43;;;;;;;-2.23;100.00;102709.91;4977305;28;20133;-86
2024/01/20 05:39:54;;;;;;;21.83;8.80;;;;;;;-2.28;100.00;102705.28;4978114;28;20047;-88
2024/01/20 05:42:20;;;;;;;23.02;9.75;;;;;;;-2.24;100.00;102719.97;4977591;28;20106;-88
2024/01/20 05:44:58;;;;;;;24.10;9.48;;;;;;;-2.36;100.00;102690.38;4977318;28;20023;-88
2024/01/20 05:47:32;;;;;;;23.55;9.50;;;;;;;-2.28;100.00;102705.28;4960029;28;20027;-88
2024/01/20 05:50:03;;;;;;;24.83;10.15;;;;;;;-2.31;100.00;102708.53;4958340;29;20031;-87
2024/01/20 05:52:28;;;;;;;23.10;9.40;;;;;;;-2.31;100.00;102700.88;4958935;29;20038;-87
2024/01/20 05:54:53;;;;;;;24.80;9.60;;;;;;;-2.31;100.00;102703.44;4958937;29;20019;-87
2024/01/20 05:57:20;;;;;;;23.00;9.80;;;;;;;-2.26;100.00;102721.53;4964576;28;20073;-88
2024/01/20 05:59:45;;;;;;;23.17;9.63;;;;;;;-2.25;100.00;102720.78;4978543;28;20054;-88
2024/01/20 06:02:17;;;;;;;25.17;10.15;;;;;;;-2.27;100.00;102725.72;4978574;28;20034;-87
2024/01/20 06:04:42;;;;;;;24.58;10.13;;;;;;;-2.29;100.00;102723.88;4979008;28;20030;-88
2024/01/20 06:07:19;;;;;;;26.42;11.05;;;;;;;-2.43;100.00;102707.69;4979513;28;20023;-88
2024/01/20 06:09:48;;;;;;;24.35;9.90;;;;;;;-2.46;100.00;102713.41;4981876;28;20055;-88
2024/01/20 06:12:21;;;;;;;23.38;9.48;;;;;;;-2.44;100.00;102713.53;4982195;28;20097;-87
2024/01/20 06:14:50;;;;;;;21.88;8.85;;;;;;;-2.49;100.00;102715.78;4988222;28;20041;-88
2024/01/20 06:17:21;;;;;;;23.20;9.85;;;;;;;-2.45;100.00;102717.72;4994126;28;20022;-89
2024/01/20 06:19:47;;;;;;;21.35;8.82;;;;;;;-2.37;100.00;102734.41;4981441;28;20057;-88
2024/01/20 06:22:19;;;;;;;21.75;8.73;;;;;;;-2.45;100.00;102727.91;4976970;28;20106;-88
2024/01/20 06:24:47;;;;;;;24.02;9.20;;;;;;;-2.43;100.00;102720.41;4976135;28;20111;-88
2024/01/20 06:27:12;;;;;;;25.38;10.30;;;;;;;-2.22;100.00;102736.22;4975423;28;20042;-88
2024/01/20 06:29:41;;;;;;;24.23;9.75;;;;;;;-2.28;100.00;102743.44;4976144;28;20019;-87
2024/01/20 06:32:08;;;;;;;23.58;9.70;;;;;;;-2.30;100.00;102733.16;4975816;28;20026;-88
2024/01/20 06:34:33;;;;;;;23.92;9.98;;;;;;;-2.29;100.00;102741.69;4975802;28;20034;-88
2024/01/20 06:36:58;;;;;;;23.10;10.10;;;;;;;-2.32;100.00;102742.34;4966627;28;20514;-88
2024/01/20 06:39:24;;;;;;;23.45;10.27;;;;;;;-2.37;100.00;102736.97;4957448;29;20130;-88
2024/01/20 06:41:50;;;;;;;23.70;9.93;;;;;;;-2.38;100.00;102737.75;4960221;29;20019;-88
2024/01/20 06:44:16;;;;;;;22.65;8.68;;;;;;;-2.36;100.00;102748.88;4955446;28;20034;-88
2024/01/20 06:46:42;;;;;;;22.98;9.20;;;;;;;-2.34;100.00;102751.53;4956276;29;20031;-88
2024/01/20 06:49:08;;;;;;;22.23;8.60;;;;;;;-2.33;100.00;102751.63;4956310;29;20051;-85
2024/01/20 06:51:33;;;;;;;20.75;8.40;;;;;;;-2.30;100.00;102763.66;4956612;29;20031;-88
2024/01/20 06:53:58;;;;;;;20.92;8.15;;;;;;;-2.36;100.00;102759.03;4956440;29;20074;-88
2024/01/20 06:56:24;;;;;;;21.30;7.55;;;;;;;-2.30;100.00;102772.97;4955965;29;20050;-87
2024/01/20 06:58:56;;;;;;;20.37;7.27;;;;;;;-2.26;100.00;102775.81;4956750;29;20431;-87
2024/01/20 07:01:22;;;;;;;23.92;8.68;;;;;;;-2.25;100.00;102782.69;4955205;28;20047;-88
2024/01/20 07:03:47;;;;;;;22.40;8.73;;;;;;;-2.27;100.00;102761.34;4956537;29;20463;-87
2024/01/20 07:06:14;;;;;;;22.75;9.02;;;;;;;-2.21;100.00;102776.13;4955853;28;20023;-88
2024/01/20 07:08:39;;;;;;;22.45;9.25;;;;;;;-2.29;100.00;102770.53;4955697;29;20066;-88
2024/01/20 07:11:11;;;;;;;21.73;8.70;;;;;;;-2.33;100.00;102771.97;4955899;28;20079;-88
2024/01/20 07:13:37;;;;;;;22.45;8.73;;;;;;;-2.27;100.00;102768.97;4955967;29;20526;-87
2024/01/20 07:16:13;;;;;;;23.50;9.32;;;;;;;-2.26;100.00;102774.97;4954693;28;20034;-87
2024/01/20 07:18:42;;;;;;;22.80;9.40;;;;;;;-2.30;100.00;102767.88;4956021;29;20039;-88
2024/01/20 07:21:07;;;;;;;22.38;9.15;;;;;;;-2.28;100.00;102766.34;4955944;29;20031;-87
2024/01/20 07:23:36;;;;;;;23.27;9.48;;;;;;;-2.42;100.00;102752.69;4955538;29;20032;-88
2024/01/20 07:26:04;;;;;;;23.15;9.32;;;;;;;-2.29;100.00;102767.09;4955548;29;20023;-86
2024/01/20 07:28:29;;;;;;;25.48;10.27;;;;;;;-2.36;100.00;102765.81;4951015;29;20063;-87
2024/01/20 07:30:54;;;;;;;24.77;10.30;;;;;;;-2.30;100.00;102773.84;4956263;29;20085;-87
2024/01/20 07:33:20;;;;;;;23.05;9.68;;;;;;;-2.37;100.00;102767.47;4955787;28;20033;-88
2024/01/20 07:35:45;;;;;;;23.92;9.50;;;;;;;-2.35;100.00;102768.44;4955207;29;20023;-88
2024/01/20 07:38:11;;;;;;;23.60;9.80;;;;;;;-2.30;100.00;102780.59;4955859;29;20138;-88
2024/01/20 07:40:36;;;;;;;24.02;9.15;;;;;;;-2.31;100.00;102773.75;4955850;29;20464;-88
2024/01/20 07:43:03;;;;;;;23.50;9.80;;;;;;;-2.33;100.00;102768.56;4954864;29;20086;-88
2024/01/20 07:45:28;;;;;;;22.35;9.50;;;;;;;-2.27;100.00;102778.28;4956767;29;20539;-88
2024/01/20 07:47:54;;;;;;;23.30;9.88;;;;;;;-2.31;100.00;102783.91;4971855;29;20030;-88
2024/01/20 07:50:25;;;;;;;20.98;8.27;;;;;;;-2.24;100.00;102788.63;4954995;29;20130;-88
2024/01/20 07:52:50;;;;;;;25.50;10.43;;;;;;;-2.23;100.00;102787.88;4955455;28;20031;-88
2024/01/20 07:55:15;;;;;;;25.35;10.55;;;;;;;-2.30;100.00;102784.00;4965246;28;20069;-88
2024/01/20 07:57:41;;;;;;;25.08;10.10;;;;;;;-2.39;100.00;102775.75;4974529;28;20023;-90
2024/01/20 08:00:10;;;;;;;22.88;9.57;;;;;;;-2.23;100.00;102805.66;4974977;28;20061;-89
2024/01/20 08:02:36;;;;;;;24.38;10.25;;;;;;;-2.24;100.00;102806.44;4975465;28;20029;-89
2024/01/20 08:05:02;;;;;;;25.88;10.82;;;;;;;-2.15;100.00;102804.56;4974657;28;20022;-89
2024/01/20 08:07:28;;;;;;;26.47;11.30;;;;;;;-2.20;100.00;102801.69;4974776;28;20026;-90
2024/01/20 08:09:53;;;;;;;24.60;10.50;;;;;;;-2.24;100.00;102797.16;4975001;28;20038;-89
2024/01/20 08:12:18;;;;;;;24.90;10.50;;;;;;;-2.21;100.00;102804.13;4975033;28;20114;-90
2024/01/20 08:14:44;;;;;;;26.08;10.68;;;;;;;-2.14;100.00;102805.44;4975139;28;20092;-90
2024/01/20 08:17:09;;;;;;;26.23;10.90;;;;;;;-2.18;100.00;102811.97;4974347;28;20046;-90
2024/01/20 08:19:53;;;;;;;26.67;11.13;;;;;;;-2.19;100.00;102807.66;4974702;28;20506;-90
2024/01/20 08:22:19;;;;;;;25.60;11.07;;;;;;;-2.18;100.00;102811.97;4973954;28;20102;-90
2024/01/20 08:24:45;;;;;;;26.60;11.27;;;;;;;-2.24;100.00;102814.97;4964957;23;20051;-89
2024/01/20 08:27:10;;;;;;;27.35;11.52;;;;;;;-2.24;100.00;102814.06;4954801;29;20029;-90
2024/01/20 08:29:35;;;;;;;25.27;10.27;;;;;;;-2.21;100.00;102814.28;4955230;29;20059;-89
2024/01/20 08:32:00;;;;;;;23.92;9.80;;;;;;;-2.21;100.00;102819.38;4955308;28;20030;-90
2024/01/20 08:34:26;;;;;;;25.30;10.48;;;;;;;-2.20;100.00;102814.41;4955194;29;20484;-90
2024/01/20 08:36:51;;;;;;;25.90;11.05;;;;;;;-2.22;100.00;102815.97;4955536;29;20020;-90
2024/01/20 08:39:20;;;;;;;26.92;11.15;;;;;;;-2.14;100.00;102816.50;4954365;28;20114;-90
2024/01/20 08:41:58;;;;;;;25.90;10.77;;;;;;;-2.27;100.00;102812.22;4955623;29;20038;-90
2024/01/20 08:44:32;;;;;;;27.10;11.13;;;;;;;-2.30;100.00;102812.00;4956695;28;20176;-89
2024/01/20 08:46:57;;;;;;;28.95;12.27;;;;;;;-2.19;100.00;102828.88;4959294;28;20038;-87
2024/01/20 08:49:23;;;;;;;25.83;11.38;;;;;;;-2.28;100.00;102812.13;4957662;28;20427;-87
2024/01/20 08:51:48;;;;;;;25.17;10.65;;;;;;;-2.12;100.00;102834.41;4967344;28;20021;-87
2024/01/20 08:54:13;;;;;;;24.75;10.50;;;;;;;-2.10;100.00;102835.41;4970275;28;20083;-86
2024/01/20 08:56:39;;;;;;;22.92;9.40;;;;;;;-2.09;100.00;102829.53;4956630;28;20019;-93
2024/01/20 08:59:04;;;;;;;21.42;8.52;;;;;;;-2.00;100.00;102829.25;4954725;29;20043;-90
2024/01/20 09:01:29;;;;;;;23.27;9.48;;;;;;;-1.92;100.00;102831.56;4955252;29;20030;-91
2024/01/20 09:03:54;;;;;;;22.02;9.07;;;;;;;-1.85;100.00;102840.50;4946339;23;20111;-91
2024/01/20 09:06:20;;;;;;;23.33;9.63;;;;;;;-1.83;100.00;102831.31;4934938;29;20020;-91
2024/01/20 09:08:45;;;;;;;23.05;9.52;;;;;;;-1.84;100.00;102839.72;4936256;29;20063;-92
2024/01/20 09:11:12;;;;;;;21.63;8.85;;;;;;;-1.82;100.00;102835.63;4935381;29;20497;-92
2024/01/20 09:13:37;;;;;;;24.70;10.23;;;;;;;-1.84;100.00;102844.81;4935940;29;20130;-91
2024/01/20 09:16:02;;;;;;;25.52;10.55;;;;;;;-1.84;100.00;102836.28;4935691;29;20115;-92
2024/01/20 09:18:28;;;;;;;24.05;10.10;;;;;;;-1.77;100.00;102843.56;4938960;29;20038;-90
2024/01/20 09:23:37;;;;;;;24.23;10.00;;;;;;;-1.95;100.00;102833.88;4955025;29;20046;-91
2024/01/20 09:26:03;;;;;;;23.33;10.30;;;;;;;-1.93;100.00;102839.97;4954879;29;20023;-91
2024/01/20 09:28:28;;;;;;;26.23;11.65;;;;;;;-1.86;100.00;102859.09;4940171;29;20042;-90
2024/01/20 09:30:53;;;;;;;24.15;10.35;;;;;;;-1.96;100.00;102833.78;4935753;29;20357;-92
2024/01/20 09:33:35;;;;;;;25.27;10.65;;;;;;;-1.92;100.00;102845.97;4936247;29;20473;-91
2024/01/20 09:36:02;;;;;;;22.75;9.65;;;;;;;-1.97;100.00;102830.34;4933705;29;20032;-91
2024/01/20 09:38:28;;;;;;;23.58;10.55;;;;;;;-1.95;100.00;102833.88;4936704;29;20229;-92
2024/01/20 09:40:56;;;;;;;25.30;11.00;;;;;;;-1.86;100.00;102838.72;4936798;29;20239;-92
2024/01/20 09:43:39;;;;;;;25.02;10.65;;;;;;;-1.88;100.00;102836.09;4943215;29;20023;-93
2024/01/20 09:46:05;;;;;;;26.52;11.50;;;;;;;-1.89;100.00;102843.59;4955842;29;20031;-92
2024/01/20 09:48:30;;;;;;;25.85;11.15;;;;;;;-1.88;100.00;102841.19;4955910;29;20020;-91
2024/01/20 09:51:24;;;;;;;23.02;9.65;;;;;;;-1.72;100.00;102862.56;4954986;29;20063;-93
2024/01/20 09:53:54;;;;;;;23.48;10.65;;;;;;;-1.72;100.00;102858.38;4955453;29;20034;-92
2024/01/20 09:56:41;;;;;;;24.75;10.00;;;;;;;-1.64;100.00;102873.28;4954942;29;20019;-91
2024/01/20 09:59:09;;;;;;;23.60;10.13;;;;;;;-1.81;100.00;102845.03;4955900;29;20082;-91
2024/01/20 10:01:52;;;;;;;23.52;9.80;;;;;;;-1.72;100.00;102858.38;4956446;29;20027;-91
2024/01/20 10:04:19;;;;;;;23.88;10.15;;;;;;;-1.71;100.00;102862.69;4957258;28;20053;-92
2024/01/20 10:06:44;;;;;;;;;;;;;;;-1.57;100.00;102867.81;4956875;29;20424;-92
2024/01/20 10:09:09;;;;;;;25.37;11.27;;;;;;;-1.57;100.00;102872.91;4955567;23;20025;-92
2024/01/20 10:11:35;;;;;;;26.55;11.48;;;;;;;-1.57;100.00;102873.81;4939145;29;20480;-93
2024/01/20 10:14:00;;;;;;;27.02;11.93;;;;;;;-1.59;100.00;102870.25;4939902;29;20031;-92
2024/01/20 10:16:25;;;;;;;23.95;10.55;;;;;;;-1.50;100.00;102876.75;4941253;29;20074;-92
2024/01/20 10:18:50;;;;;;;26.80;11.35;;;;;;;-1.44;100.00;102883.13;4945345;29;20102;-91
2024/01/20 10:21:16;;;;;;;28.38;13.13;;;;;;;-1.51;100.00;102878.41;4953003;29;20035;-93
2024/01/20 10:23:42;;;;;;;25.20;10.60;;;;;;;-1.50;100.00;102877.66;4947210;29;20031;-93
2024/01/20 10:26:09;;;;;;;24.30;10.15;;;;;;;-1.49;100.00;102873.41;4947154;29;20039;-93
2024/01/20 10:28:34;;;;;;;;;;;;;;;-1.44;100.00;102879.72;4943291;29;20075;-93
2024/01/20 10:31:09;;;;;;;24.13;10.23;;;;;;;-1.38;100.00;102886.88;4940168;29;19930;-92
2024/01/20 10:33:35;;;;;;;24.70;10.88;;;;;;;-1.31;100.00;102881.41;4939624;29;20091;-93
2024/01/20 10:36:02;;;;;;;25.75;11.52;;;;;;;-1.34;100.00;102864.25;4938766;29;20024;-92
2024/01/20 10:38:29;;;;;;;24.60;10.77;;;;;;;-1.28;100.00;102868.88;4938300;29;20036;-92
2024/01/20 10:40:57;;;;;;;25.55;11.10;;;;;;;-1.26;100.00;102859.69;4938947;29;20456;-92
2024/01/20 10:43:27;;;;;;;25.98;11.50;;;;;;;-1.11;100.00;102870.84;4938675;29;20031;-92
2024/01/20 10:46:01;;;;;;;24.38;11.10;;;;;;;-1.12;100.00;102865.69;4938056;29;20027;-95
2024/01/20 10:48:27;;;;;;;24.80;10.10;;;;;;;-1.10;100.00;102856.47;4938520;29;20032;-91
2024/01/20 10:50:58;;;;;;;22.55;9.68;;;;;;;-1.10;100.00;102854.78;4938261;29;20070;-92
2024/01/20 10:53:25;;;;;;;22.42;9.45;;;;;;;-1.06;100.00;102855.88;4938229;29;20031;-92
2024/01/20 10:55:51;;;;;;;21.67;8.73;;;;;;;-1.07;100.00;102861.78;4938854;29;20167;-93
2024/01/20 10:58:21;;;;;;;22.05;8.95;;;;;;;-1.03;100.00;102865.41;4938076;29;20068;-93
2024/01/20 11:00:47;;;;;;;22.73;9.55;;;;;;;-1.02;100.00;102865.50;4937904;29;20032;-93
2024/01/20 11:03:13;;;;;;;22.35;8.85;;;;;;;-0.99;100.00;102860.59;4938211;29;20032;-87
2024/01/20 11:05:39;;;;;;;21.20;8.38;;;;;;;-0.95;100.00;102864.22;4938438;29;20028;-92